createdAt,value
2022-09-20T00:02:02.847Z,15.11
2022-09-20T00:04:30.518Z,15.18
2022-09-20T00:06:58.247Z,15.24
2022-09-20T00:09:25.817Z,15.30
2022-09-20T00:11:53.497Z,15.33
2022-09-20T00:14:22.504Z,15.34
2022-09-20T00:16:50.183Z,15.16
2022-09-20T00:19:18.927Z,15.30
2022-09-20T00:21:46.601Z,15.37
2022-09-20T00:24:14.409Z,15.39
2022-09-20T00:26:42.024Z,15.39
2022-09-20T00:29:09.683Z,15.51
2022-09-20T00:31:41.360Z,15.57
2022-09-20T00:34:27.767Z,15.51
2022-09-20T00:36:55.343Z,15.63
2022-09-20T00:39:22.970Z,15.67
2022-09-20T00:41:50.587Z,15.72
2022-09-20T00:44:51.171Z,15.77
2022-09-20T00:47:25.397Z,15.57
2022-09-20T00:49:56.183Z,15.71
2022-09-20T00:52:24.003Z,15.67
2022-09-20T00:54:51.618Z,15.68
2022-09-20T00:57:19.263Z,15.84
2022-09-20T00:59:47.903Z,15.83
2022-09-20T01:02:19.421Z,15.84
2022-09-20T01:04:48.414Z,15.79
2022-09-20T01:07:17.168Z,15.85
2022-09-20T01:09:45.133Z,15.86
2022-09-20T01:12:14.939Z,15.86
2022-09-20T01:14:42.888Z,15.80
2022-09-20T01:17:10.526Z,15.83
2022-09-20T01:19:41.171Z,15.80
2022-09-20T01:22:15.942Z,15.78
2022-09-20T01:24:45.831Z,15.74
2022-09-20T01:27:15.940Z,15.68
2022-09-20T01:29:53.229Z,15.36
2022-09-20T01:32:21.804Z,15.51
2022-09-20T01:34:50.342Z,15.41
2022-09-20T01:37:20.833Z,15.43
2022-09-20T01:39:52.430Z,15.34
2022-09-20T01:42:20.227Z,14.91
2022-09-20T01:44:53.188Z,15.21
2022-09-20T01:47:25.379Z,15.17
2022-09-20T01:49:55.596Z,15.12
2022-09-20T01:52:49.269Z,15.07
2022-09-20T01:55:51.797Z,15.06
2022-09-20T01:59:22.558Z,15.00
2022-09-20T02:02:28.464Z,14.93
2022-09-20T02:05:06.296Z,14.84
2022-09-20T02:07:52.233Z,14.83
2022-09-20T02:10:57.201Z,14.82
2022-09-20T02:13:30.107Z,14.74
2022-09-20T02:16:14.093Z,14.74
2022-09-20T02:18:48.950Z,14.70
2022-09-20T02:21:21.862Z,14.34
2022-09-20T02:23:52.958Z,14.70
2022-09-20T02:26:28.184Z,14.57
2022-09-20T02:28:58.083Z,14.41
2022-09-20T02:31:34.899Z,14.67
2022-09-20T02:34:19.947Z,14.68
2022-09-20T02:36:55.072Z,14.64
2022-09-20T02:39:23.641Z,14.51
2022-09-20T02:42:02.583Z,14.38
2022-09-20T02:44:47.321Z,14.69
2022-09-20T02:47:20.831Z,14.73
2022-09-20T02:49:55.164Z,14.74
2022-09-20T02:52:29.210Z,14.73
2022-09-20T02:55:00.053Z,14.69
2022-09-20T02:57:31.219Z,14.53
2022-09-20T03:00:01.764Z,14.64
2022-09-20T03:02:31.722Z,14.50
2022-09-20T03:05:09.584Z,14.58
2022-09-20T03:07:44.811Z,14.31
2022-09-20T03:10:17.307Z,14.38
2022-09-20T03:12:53.436Z,14.27
2022-09-20T03:15:25.004Z,14.47
2022-09-20T03:17:53.802Z,14.45
2022-09-20T03:20:25.865Z,14.43
2022-09-20T03:22:59.364Z,14.37
2022-09-20T03:25:44.940Z,14.45
2022-09-20T03:28:23.336Z,14.46
2022-09-20T03:30:57.424Z,14.49
2022-09-20T03:33:30.779Z,14.51
2022-09-20T03:36:08.555Z,14.57
2022-09-20T03:38:55.136Z,14.65
2022-09-20T03:41:35.476Z,14.69
2022-09-20T03:44:11.546Z,14.61
2022-09-20T03:46:43.453Z,14.79
2022-09-20T03:49:50.961Z,14.90
2022-09-20T03:52:27.839Z,14.90
2022-09-20T03:55:24.452Z,14.99
2022-09-20T03:57:57.924Z,15.02
2022-09-20T04:00:27.999Z,15.09
2022-09-20T04:03:13.226Z,15.16
2022-09-20T04:05:46.836Z,15.16
2022-09-20T04:08:21.489Z,15.23
2022-09-20T04:10:55.263Z,15.19
2022-09-20T04:13:32.002Z,15.26
2022-09-20T04:16:07.041Z,15.24
2022-09-20T04:18:37.614Z,15.30
2022-09-20T04:21:07.551Z,15.38
2022-09-20T04:23:40.668Z,15.38
2022-09-20T04:26:09.797Z,15.41
2022-09-20T04:28:41.454Z,15.43
2022-09-20T04:31:30.690Z,13.60
2022-09-20T04:33:58.496Z,15.04
2022-09-20T04:36:37.768Z,13.95
2022-09-20T04:39:18.235Z,13.64
2022-09-20T04:42:20.946Z,13.18
2022-09-20T04:45:20.942Z,15.56
2022-09-20T04:48:24.277Z,15.59
2022-09-20T04:51:11.962Z,15.59
2022-09-20T04:54:07.457Z,15.63
2022-09-20T04:56:43.012Z,14.56
2022-09-20T04:59:13.534Z,13.01
2022-09-20T05:01:58.362Z,15.59
2022-09-20T05:05:19.856Z,14.30
2022-09-20T05:10:44.940Z,15.64
2022-09-20T05:13:16.437Z,15.65
2022-09-20T05:15:51.502Z,15.66
2022-09-20T05:18:51.814Z,15.73
2022-09-20T05:21:49.868Z,15.73
2022-09-20T05:24:44.019Z,15.67
2022-09-20T05:27:22.253Z,15.76
2022-09-20T05:29:52.588Z,15.78
2022-09-20T05:32:24.524Z,15.80
2022-09-20T05:34:53.903Z,15.78
2022-09-20T05:37:31.598Z,15.84
2022-09-20T05:40:02.724Z,15.88
2022-09-20T05:42:37.457Z,15.90
2022-09-20T05:45:12.839Z,15.94
2022-09-20T05:47:46.187Z,15.93
2022-09-20T05:50:25.693Z,15.99
2022-09-20T05:52:54.851Z,15.82
2022-09-20T05:55:29.572Z,16.03
2022-09-20T05:58:10.366Z,16.13
2022-09-20T06:00:40.704Z,16.17
2022-09-20T06:03:15.932Z,16.22
2022-09-20T06:05:51.166Z,16.14
2022-09-20T06:09:03.144Z,16.37
2022-09-20T06:11:52.952Z,16.47
2022-09-20T06:14:28.687Z,16.48
2022-09-20T06:17:00.306Z,16.38
2022-09-20T06:19:38.079Z,16.62
2022-09-20T06:22:09.143Z,16.67
2022-09-20T06:24:39.225Z,16.64
2022-09-20T06:27:09.788Z,16.55
2022-09-20T06:29:39.359Z,16.88
2022-09-20T06:32:07.747Z,16.97
2022-09-20T06:34:36.735Z,17.04
2022-09-20T06:37:28.636Z,17.15
2022-09-20T06:40:16.827Z,16.91
2022-09-20T06:42:45.296Z,17.38
2022-09-20T06:45:13.115Z,17.55
2022-09-20T06:47:40.993Z,17.74
2022-09-20T06:50:15.739Z,17.90
2022-09-20T06:52:43.763Z,17.97
2022-09-20T06:55:12.464Z,18.26
2022-09-20T06:57:40.479Z,18.44
2022-09-20T07:00:11.585Z,18.93
2022-09-20T07:02:40.145Z,19.74
2022-09-20T07:05:11.415Z,20.62
2022-09-20T07:07:38.999Z,21.25
2022-09-20T07:10:07.121Z,21.49
2022-09-20T07:12:36.162Z,21.64
2022-09-20T07:15:03.788Z,22.06
2022-09-20T07:17:31.495Z,22.50
2022-09-20T07:19:59.894Z,22.69
2022-09-20T07:22:29.070Z,23.06
2022-09-20T07:24:58.982Z,23.59
2022-09-20T07:27:29.329Z,23.99
2022-09-20T07:29:57.322Z,24.12
2022-09-20T07:32:24.981Z,24.07
2022-09-20T07:34:53.747Z,23.90
2022-09-20T07:37:21.563Z,23.71
2022-09-20T07:39:52.212Z,23.48
2022-09-20T07:42:20.202Z,23.28
2022-09-20T07:44:49.350Z,23.14
2022-09-20T07:47:18.720Z,22.87
2022-09-20T07:49:46.473Z,22.66
2022-09-20T07:52:14.670Z,22.43
2022-09-20T07:54:54.409Z,22.05
2022-09-20T07:57:22.108Z,21.88
2022-09-20T07:59:49.936Z,21.65
2022-09-20T08:02:17.756Z,21.56
2022-09-20T08:05:10.243Z,21.55
2022-09-20T08:07:38.518Z,21.61
2022-09-20T08:10:08.627Z,21.64
2022-09-20T08:15:25.864Z,21.88
2022-09-20T08:17:53.708Z,22.24
2022-09-20T08:20:21.427Z,23.20
2022-09-20T08:23:19.479Z,24.11
2022-09-20T08:25:44.209Z,24.86
2022-09-20T08:28:11.917Z,25.28
2022-09-20T08:30:39.544Z,25.41
2022-09-20T08:33:07.901Z,25.44
2022-09-20T08:35:38.201Z,25.39
2022-09-20T08:41:02.030Z,25.28
2022-09-20T08:43:34.875Z,25.46
2022-09-20T08:46:06.728Z,25.92
2022-09-20T08:48:34.537Z,27.34
2022-09-20T08:51:05.618Z,28.01
2022-09-20T08:53:33.617Z,28.61
2022-09-20T08:56:04.614Z,29.02
2022-09-20T08:58:32.204Z,29.97
2022-09-20T09:01:00.081Z,30.32
2022-09-20T09:03:28.248Z,30.65
2022-09-20T09:05:56.598Z,30.40
2022-09-20T09:08:26.135Z,29.75
2022-09-20T09:10:55.122Z,29.10
2022-09-20T09:13:26.516Z,28.57
2022-09-20T09:15:57.181Z,28.10
2022-09-20T09:18:33.039Z,27.35
2022-09-20T09:21:04.096Z,26.94
2022-09-20T09:23:36.269Z,26.35
2022-09-20T09:26:04.361Z,25.55
2022-09-20T09:28:36.817Z,25.16
2022-09-20T09:31:15.921Z,24.53
2022-09-20T09:33:47.021Z,24.04
2022-09-20T09:36:15.868Z,23.58
2022-09-20T09:38:45.430Z,23.28
2022-09-20T09:41:26.127Z,23.01
2022-09-20T09:44:01.851Z,22.52
2022-09-20T09:46:31.978Z,22.85
2022-09-20T09:49:12.050Z,23.00
2022-09-20T09:51:42.385Z,23.22
2022-09-20T09:54:10.598Z,23.34
2022-09-20T09:56:57.427Z,23.40
2022-09-20T09:59:49.293Z,23.09
2022-09-20T10:02:30.536Z,23.09
2022-09-20T10:05:00.650Z,22.99
2022-09-20T10:07:32.342Z,23.05
2022-09-20T10:10:04.900Z,23.55
2022-09-20T10:12:48.881Z,24.12
2022-09-20T10:15:27.100Z,24.72
2022-09-20T10:18:01.386Z,25.26
2022-09-20T10:20:42.853Z,25.48
2022-09-20T10:26:08.228Z,25.15
2022-09-20T10:28:49.365Z,24.89
2022-09-20T10:31:26.032Z,24.37
2022-09-20T10:34:10.568Z,24.31
2022-09-20T10:36:40.382Z,24.13
2022-09-20T10:39:11.811Z,24.02
2022-09-20T10:42:04.977Z,23.90
2022-09-20T10:44:43.999Z,23.83
2022-09-20T10:50:29.400Z,24.11
2022-09-20T10:53:06.441Z,24.87
2022-09-20T10:55:39.160Z,26.83
2022-09-20T10:58:33.325Z,28.25
2022-09-20T11:01:02.519Z,28.16
2022-09-20T11:03:41.881Z,27.78
2022-09-20T11:06:14.686Z,27.22
2022-09-20T11:08:59.514Z,26.58
2022-09-20T11:11:29.232Z,26.00
2022-09-20T11:13:59.358Z,25.48
2022-09-20T11:16:28.822Z,25.01
2022-09-20T11:19:00.352Z,24.57
2022-09-20T11:21:29.453Z,23.95
2022-09-20T11:23:58.746Z,23.06
2022-09-20T11:26:29.811Z,21.48
2022-09-20T11:29:04.487Z,21.91
2022-09-20T11:31:33.492Z,21.94
2022-09-20T11:34:04.404Z,22.47
2022-09-20T11:36:34.724Z,22.13
2022-09-20T11:39:05.018Z,20.85
2022-09-20T11:41:33.971Z,23.62
2022-09-20T11:44:04.174Z,23.86
2022-09-20T11:46:33.401Z,22.14
2022-09-20T11:49:03.564Z,25.67
2022-09-20T11:52:19.552Z,26.59
2022-09-20T11:55:11.316Z,26.92
2022-09-20T11:57:39.286Z,25.81
2022-09-20T12:00:10.107Z,26.07
2022-09-20T12:02:42.034Z,26.17
2022-09-20T12:05:26.319Z,25.71
2022-09-20T12:07:54.940Z,24.53
2022-09-20T12:10:23.786Z,25.64
2022-09-20T12:12:56.030Z,26.11
2022-09-20T12:15:25.430Z,26.08
2022-09-20T12:18:15.378Z,26.10
2022-09-20T12:21:04.743Z,26.10
2022-09-20T12:24:09.502Z,26.12
2022-09-20T12:26:45.109Z,25.96
2022-09-20T12:29:52.927Z,26.29
2022-09-20T12:32:56.202Z,26.43
2022-09-20T12:36:26.755Z,26.51
2022-09-20T12:39:04.539Z,26.51
2022-09-20T12:41:46.432Z,26.56
2022-09-20T12:44:29.529Z,26.44
2022-09-20T12:46:58.149Z,26.65
2022-09-20T12:50:09.732Z,26.78
2022-09-20T12:52:56.872Z,26.72
2022-09-20T12:55:34.773Z,26.67
2022-09-20T12:58:04.110Z,26.62
2022-09-20T13:00:38.887Z,26.19
2022-09-20T13:03:23.792Z,26.34
2022-09-20T13:05:52.596Z,26.06
2022-09-20T13:08:21.347Z,26.32
2022-09-20T13:10:51.770Z,26.33
2022-09-20T13:13:28.854Z,26.31
2022-09-20T13:15:56.488Z,26.37
2022-09-20T13:18:25.116Z,26.34
2022-09-20T13:20:53.855Z,26.33
2022-09-20T13:23:25.080Z,26.02
2022-09-20T13:25:54.288Z,26.07
2022-09-20T13:28:28.747Z,26.01
2022-09-20T13:31:23.261Z,25.91
2022-09-20T13:33:50.959Z,25.73
2022-09-20T13:36:23.129Z,25.62
2022-09-20T13:38:51.015Z,25.58
2022-09-20T13:41:20.094Z,25.50
2022-09-20T13:43:49.356Z,25.38
2022-09-20T13:46:18.067Z,25.41
2022-09-20T13:48:47.308Z,25.43
2022-09-20T13:51:18.700Z,25.48
2022-09-20T13:53:46.743Z,25.52
2022-09-20T13:56:18.678Z,25.49
2022-09-20T13:58:48.165Z,25.35
2022-09-20T14:01:24.398Z,25.28
2022-09-20T14:03:52.120Z,24.94
2022-09-20T14:06:21.714Z,24.97
2022-09-20T14:08:50.361Z,24.84
2022-09-20T14:11:19.728Z,24.71
2022-09-20T14:13:50.924Z,24.53
2022-09-20T14:16:18.925Z,24.40
2022-09-20T14:18:47.208Z,24.21
2022-09-20T14:21:15.513Z,24.31
2022-09-20T14:23:51.160Z,24.15
2022-09-20T14:26:23.943Z,24.17
2022-09-20T14:28:53.110Z,24.03
2022-09-20T14:31:22.768Z,24.05
2022-09-20T14:33:54.939Z,24.00
2022-09-20T14:36:23.936Z,24.12
2022-09-20T14:38:52.428Z,24.25
2022-09-20T14:41:28.787Z,24.31
2022-09-20T14:43:59.090Z,24.47
2022-09-20T14:46:32.977Z,24.52
2022-09-20T14:49:37.113Z,24.55
2022-09-20T14:52:34.373Z,24.48
2022-09-20T14:55:02.675Z,24.24
2022-09-20T14:57:32.182Z,24.05
2022-09-20T15:00:06.413Z,23.78
2022-09-20T15:02:35.849Z,23.56
2022-09-20T15:05:03.689Z,23.46
2022-09-20T15:07:31.714Z,23.25
2022-09-20T15:09:59.391Z,23.12
2022-09-20T15:12:27.144Z,22.97
2022-09-20T15:14:54.897Z,22.85
2022-09-20T15:17:24.004Z,22.70
2022-09-20T15:19:51.745Z,22.64
2022-09-20T15:22:19.375Z,22.53
2022-09-20T15:24:48.078Z,22.42
2022-09-20T15:27:15.719Z,22.36
2022-09-20T15:29:43.485Z,22.24
2022-09-20T15:32:11.403Z,22.09
2022-09-20T15:34:40.705Z,22.03
2022-09-20T15:37:08.551Z,22.08
2022-09-20T15:39:36.451Z,22.01
2022-09-20T15:42:04.536Z,21.98
2022-09-20T15:44:32.625Z,21.96
2022-09-20T15:47:00.402Z,21.88
2022-09-20T15:49:31.064Z,21.84
2022-09-20T15:52:01.496Z,21.76
2022-09-20T15:54:29.218Z,21.67
2022-09-20T15:56:58.364Z,21.62
2022-09-20T15:59:26.229Z,21.50
2022-09-20T16:01:54.035Z,21.47
2022-09-20T16:04:21.806Z,21.42
2022-09-20T16:06:50.335Z,21.34
2022-09-20T16:09:19.679Z,21.29
2022-09-20T16:11:47.612Z,21.26
2022-09-20T16:14:15.583Z,21.15
2022-09-20T16:16:43.287Z,21.17
2022-09-20T16:19:20.640Z,21.21
2022-09-20T16:21:52.483Z,20.85
2022-09-20T16:24:26.910Z,21.17
2022-09-20T16:26:54.689Z,21.12
2022-09-20T16:29:23.462Z,21.08
2022-09-20T16:31:51.322Z,21.05
2022-09-20T16:34:19.933Z,20.75
2022-09-20T16:36:48.858Z,21.01
2022-09-20T16:39:17.189Z,20.91
2022-09-20T16:41:48.276Z,20.92
2022-09-20T16:44:15.972Z,20.88
2022-09-20T16:46:44.471Z,20.82
2022-09-20T16:49:13.363Z,20.76
2022-09-20T16:51:42.562Z,20.68
2022-09-20T16:54:12.110Z,20.62
2022-09-20T16:56:40.692Z,20.54
2022-09-20T16:59:10.768Z,20.43
2022-09-20T17:01:38.786Z,20.35
2022-09-20T17:04:06.833Z,20.25
2022-09-20T17:06:35.233Z,20.14
2022-09-20T17:09:02.863Z,20.07
2022-09-20T17:11:31.532Z,20.00
2022-09-20T17:13:59.297Z,19.91
2022-09-20T17:16:29.726Z,19.81
2022-09-20T17:18:58.375Z,19.66
2022-09-20T17:21:26.218Z,19.66
2022-09-20T17:23:55.567Z,19.39
2022-09-20T17:26:24.311Z,19.51
2022-09-20T17:28:53.228Z,19.29
2022-09-20T17:31:22.900Z,19.34
2022-09-20T17:33:52.201Z,19.26
2022-09-20T17:36:21.312Z,19.19
2022-09-20T17:38:49.753Z,19.09
2022-09-20T17:41:20.821Z,18.87
2022-09-20T17:43:48.566Z,18.93
2022-09-20T17:46:17.603Z,18.84
2022-09-20T17:48:48.890Z,18.76
2022-09-20T17:51:18.786Z,18.48
2022-09-20T17:53:46.651Z,18.33
2022-09-20T17:56:14.640Z,18.55
2022-09-20T17:58:42.613Z,18.45
2022-09-20T18:01:12.812Z,18.42
2022-09-20T18:03:42.499Z,18.38
2022-09-20T18:06:14.682Z,18.32
2022-09-20T18:08:46.653Z,18.26
2022-09-20T18:11:14.738Z,18.23
2022-09-20T18:13:42.466Z,18.11
2022-09-20T18:16:11.289Z,18.19
2022-09-20T18:18:39.552Z,18.18
2022-09-20T18:21:11.862Z,18.17
2022-09-20T18:23:40.631Z,18.15
2022-09-20T18:26:25.943Z,18.16
2022-09-20T18:28:57.846Z,18.14
2022-09-20T18:31:27.202Z,18.11
2022-09-20T18:33:59.637Z,18.10
2022-09-20T18:36:27.750Z,18.10
2022-09-20T18:38:55.590Z,18.04
2022-09-20T18:41:25.884Z,18.04
2022-09-20T18:43:54.560Z,18.02
2022-09-20T18:46:24.924Z,17.99
2022-09-20T18:48:53.979Z,17.95
2022-09-20T18:51:22.012Z,17.88
2022-09-20T18:53:49.849Z,17.80
2022-09-20T18:56:26.458Z,17.79
2022-09-20T18:58:55.541Z,17.72
2022-09-20T19:01:35.059Z,17.66
2022-09-20T19:04:08.785Z,17.60
2022-09-20T19:06:44.149Z,17.50
2022-09-20T19:09:16.515Z,17.46
2022-09-20T19:11:49.839Z,17.41
2022-09-20T19:14:18.992Z,17.31
2022-09-20T19:16:47.034Z,17.28
2022-09-20T19:19:38.085Z,17.22
2022-09-20T19:22:11.201Z,16.78
2022-09-20T19:24:50.034Z,17.07
2022-09-20T19:27:19.526Z,16.93
2022-09-20T19:29:47.900Z,16.93
2022-09-20T19:32:18.713Z,16.73
2022-09-20T19:34:50.720Z,16.81
2022-09-20T19:37:22.726Z,16.77
2022-09-20T19:42:30.067Z,16.66
2022-09-20T19:45:03.763Z,16.34
2022-09-20T19:47:36.244Z,16.42
2022-09-20T19:50:15.920Z,16.35
2022-09-20T19:52:44.584Z,16.17
2022-09-20T19:55:17.037Z,16.31
2022-09-20T19:57:48.027Z,16.12
2022-09-20T20:00:17.469Z,15.99
2022-09-20T20:02:45.977Z,16.03
2022-09-20T20:05:18.855Z,16.07
2022-09-20T20:07:59.996Z,16.02
2022-09-20T20:10:51.144Z,16.17
2022-09-20T20:13:41.841Z,16.04
2022-09-20T20:16:13.644Z,16.13
2022-09-20T20:18:44.038Z,16.13
2022-09-20T20:21:15.614Z,16.07
2022-09-20T20:23:55.428Z,15.96
2022-09-20T20:26:23.660Z,16.19
2022-09-20T20:28:53.066Z,16.23
2022-09-20T20:31:21.455Z,16.27
2022-09-20T20:33:49.588Z,16.21
2022-09-20T20:36:20.181Z,16.24
2022-09-20T20:38:52.665Z,16.07
2022-09-20T20:41:41.087Z,16.23
2022-09-20T20:44:20.256Z,16.16
2022-09-20T20:46:50.906Z,15.91
2022-09-20T20:49:18.943Z,16.10
2022-09-20T20:51:47.625Z,16.07
2022-09-20T20:54:16.899Z,15.88
2022-09-20T20:56:47.634Z,15.94
2022-09-20T20:59:18.104Z,15.94
2022-09-20T21:01:48.370Z,15.60
2022-09-20T21:04:34.008Z,15.83
2022-09-20T21:07:05.074Z,15.77
2022-09-20T21:09:34.520Z,15.65
2022-09-20T21:12:03.066Z,15.47
2022-09-20T21:14:33.992Z,15.60
2022-09-20T21:17:02.497Z,15.61
2022-09-20T21:19:30.967Z,15.58
2022-09-20T21:21:58.825Z,15.53
2022-09-20T21:24:26.859Z,15.53
2022-09-20T21:26:54.750Z,15.52
2022-09-20T21:29:22.944Z,15.50
2022-09-20T21:31:52.372Z,15.28
2022-09-20T21:34:20.320Z,15.48
2022-09-20T21:36:48.404Z,15.47
2022-09-20T21:39:16.305Z,15.46
2022-09-20T21:41:44.419Z,15.46
2022-09-20T21:44:12.415Z,15.44
2022-09-20T21:46:41.020Z,15.41
2022-09-20T21:49:11.618Z,15.39
2022-09-20T21:51:39.675Z,15.38
2022-09-20T21:54:07.366Z,15.37
2022-09-20T21:56:35.896Z,15.35
2022-09-20T21:59:04.265Z,15.33
2022-09-20T22:01:34.559Z,15.30
2022-09-20T22:04:05.342Z,15.32
2022-09-20T22:06:35.171Z,15.32
2022-09-20T22:09:03.701Z,15.29
2022-09-20T22:11:32.248Z,15.30
2022-09-20T22:14:00.072Z,15.25
2022-09-20T22:16:28.406Z,15.18
2022-09-20T22:18:56.348Z,15.00
2022-09-20T22:21:25.080Z,15.14
2022-09-20T22:23:56.861Z,15.09
2022-09-20T22:26:24.900Z,15.04
2022-09-20T22:28:52.588Z,14.97
2022-09-20T22:31:21.138Z,14.90
2022-09-20T22:33:50.235Z,14.85
2022-09-20T22:36:20.026Z,14.81
2022-09-20T22:38:47.757Z,14.77
2022-09-20T22:41:17.613Z,14.74
2022-09-20T22:43:45.321Z,14.71
2022-09-20T22:46:13.865Z,14.65
2022-09-20T22:48:41.704Z,14.65
2022-09-20T22:51:10.484Z,14.46
2022-09-20T22:53:38.206Z,14.57
2022-09-20T22:56:06.607Z,14.54
2022-09-20T22:58:36.368Z,14.44
2022-09-20T23:01:05.956Z,14.44
2022-09-20T23:03:33.656Z,14.43
2022-09-20T23:06:02.878Z,14.40
2022-09-20T23:08:31.948Z,14.39
2022-09-20T23:11:03.276Z,14.36
2022-09-20T23:13:30.954Z,14.03
2022-09-20T23:15:59.984Z,14.32
2022-09-20T23:18:27.552Z,14.26
2022-09-20T23:21:01.510Z,14.26
2022-09-20T23:23:29.258Z,14.22
2022-09-20T23:25:57.091Z,14.20
2022-09-20T23:28:27.323Z,14.18
2022-09-20T23:30:55.136Z,14.12
2022-09-20T23:33:24.291Z,14.11
2022-09-20T23:35:51.982Z,14.09
2022-09-20T23:38:19.560Z,14.07
2022-09-20T23:40:47.172Z,14.05
2022-09-20T23:43:14.941Z,14.02
2022-09-20T23:45:42.585Z,14.00
2022-09-20T23:48:10.360Z,13.92
2022-09-20T23:50:39.276Z,13.92
2022-09-20T23:53:06.958Z,13.90
2022-09-20T23:55:34.533Z,13.82
2022-09-20T23:58:02.186Z,13.83
